Brevik Bridge — VRHY7 — position and weather

sailwx.info

Track history (hours):
 
Tides and Currents Weather Stations Pressure Air Temp Water Temp Dewpoint Dewpoint Depression Visibility Wind Speed Wind Dir Waves Ship Positions

Brevik Bridge

Last reported at 2015-Sep-02 01:29 UTC. Time now 2015-Sep-02 02:27 UTC.
Position N 02°56' E 101°18'.

Length 268 m; draft 11.6 m.

Type: Cargo ship. MMSI: 477866200.

Date/timePositionNaut miles runAvg speedWind from/ knotsBaromVisibWave heightAir tempDewpointWater temp
2015-Sep-02 01:29N 02°56' E 101°18'0 0.0
2015-Sep-02 00:29N 02°56' E 101°18'0 0.0
2015-Sep-01 22:32N 02°56' E 101°18'0 0.0
2015-Sep-01 20:32N 02°56' E 101°18'0 0.0
2015-Sep-01 19:32N 02°56' E 101°18'0 0.0
2015-Sep-01 17:32N 02°56' E 101°18'0 0.0
2015-Sep-01 16:32N 02°56' E 101°18'0 0.0
2015-Sep-01 13:32N 02°56' E 101°18'0 0.0
2015-Sep-01 10:30N 02°56' E 101°18'1 0.8
2015-Sep-01 09:33N 02°55' E 101°17'9 8.7
2015-Sep-01 08:33N 02°48' E 101°13'1 1.2
2015-Sep-01 07:31N 02°48' E 101°11'0 0.0
2015-Sep-01 05:16N 02°48' E 101°11'0 0.1
2015-Sep-01 04:04N 02°48' E 101°11'0 0.1
2015-Sep-01 03:31N 02°48' E 101°11'0 0.1
2015-Sep-01 01:31N 02°48' E 101°12'0 0.0
2015-Sep-01 00:31N 02°48' E 101°12'0 0.1
2015-Aug-31 19:31N 02°48' E 101°11'0 0.1
2015-Aug-31 18:31N 02°48' E 101°11'0 0.1
2015-Aug-31 16:29N 02°48' E 101°11'7 8.0
2015-Aug-31 15:34N 02°42' E 101°16'2311.7
2015-Aug-31 13:33N 02°30' E 101°36'1110.7
2015-Aug-31 12:32N 02°23' E 101°45'13511.9
2015-Aug-31 01:13N 01°12' E 103°39'6 9.8
2015-Aug-31 00:33N 01°16' E 103°44'2 1.8
2015-Aug-30 23:26N 01°17' E 103°46'0 0.0
2015-Aug-30 22:29N 01°17' E 103°46'0 0.0
2015-Aug-30 21:32N 01°17' E 103°46'0 0.0
2015-Aug-30 20:32N 01°17' E 103°46'0 0.0
2015-Aug-30 19:26N 01°17' E 103°46'0 0.0
2015-Aug-30 18:29N 01°17' E 103°46'0 0.0
2015-Aug-30 17:23N 01°17' E 103°46'0 0.0
2015-Aug-30 16:29N 01°17' E 103°46'0 0.0
2015-Aug-30 15:29N 01°17' E 103°46'0 0.0
2015-Aug-30 14:29N 01°17' E 103°46'0 0.0
2015-Aug-30 13:29N 01°17' E 103°46'0 0.0
2015-Aug-30 12:29N 01°17' E 103°46'0 0.0
2015-Aug-30 11:05N 01°17' E 103°46'0 0.0
2015-Aug-30 10:32N 01°17' E 103°46'0 0.0
2015-Aug-30 09:29N 01°17' E 103°46'0 0.0
2015-Aug-30 08:11N 01°17' E 103°46'0 0.0
2015-Aug-30 07:29N 01°17' E 103°46'0 0.0
2015-Aug-30 06:33N 01°17' E 103°46'1 1.1
2015-Aug-30 05:33N 01°16' E 103°45'4 3.9
2015-Aug-30 04:33N 01°13' E 103°48'9 9.3
2015-Aug-30 03:33N 01°15' E 103°57'10 9.6
2015-Aug-30 02:33N 01°17' E 104°06'8 7.8
2015-Aug-30 01:33N 01°18' E 104°14'  
2015-Aug-26 13:33N 22°06' E 114°24'1914.1
2015-Aug-26 12:12N 22°16' E 114°07'1312.3
2015-Aug-26 11:08N 22°22' E 113°54'5 4.7
2015-Aug-26 10:07N 22°27' E 113°53'0 0.1
2015-Aug-26 09:25N 22°27' E 113°53'0 0.1
2015-Aug-26 08:19N 22°27' E 113°53'0 0.1
2015-Aug-26 07:31N 22°27' E 113°53'0 0.0
2015-Aug-26 06:25N 22°27' E 113°53'0 0.1
2015-Aug-26 05:31N 22°27' E 113°53'0 0.0
2015-Aug-26 04:25N 22°27' E 113°53'0 0.1
2015-Aug-26 03:31N 22°27' E 113°53'0 0.0
2015-Aug-26 01:13N 22°27' E 113°53'0 0.0
2015-Aug-25 20:12N 22°27' E 113°53'3 5.3
2015-Aug-25 19:33N 22°24' E 113°54'8 7.2
2015-Aug-25 18:30N 22°21' E 114°01'5 5.1
2015-Aug-25 17:32N 22°18' E 114°05'0 0.1
2015-Aug-25 16:32N 22°18' E 114°05'0 0.1
2015-Aug-25 15:27N 22°18' E 114°06'0 0.2
2015-Aug-25 14:32N 22°18' E 114°05'0 0.1
2015-Aug-25 13:29N 22°18' E 114°05'3 2.7
2015-Aug-25 12:33N 22°19' E 114°07'0 0.1
2015-Aug-25 11:27N 22°19' E 114°07'0 0.0
2015-Aug-25 10:27N 22°19' E 114°07'0 0.0
2015-Aug-25 09:30N 22°19' E 114°07'0 0.1
2015-Aug-25 08:33N 22°19' E 114°07'0 0.0
2015-Aug-25 07:15N 22°19' E 114°07'0 0.0
2015-Aug-25 06:30N 22°19' E 114°07'0 0.0
2015-Aug-25 05:27N 22°19' E 114°07'0 0.1
2015-Aug-25 04:33N 22°19' E 114°07'0 0.1
2015-Aug-25 03:33N 22°19' E 114°07'0 0.0
2015-Aug-25 02:24N 22°19' E 114°07'0 0.1
2015-Aug-25 01:30N 22°19' E 114°07'0 0.1
2015-Aug-25 00:33N 22°19' E 114°07'0 0.1
2015-Aug-24 23:33N 22°19' E 114°07'0 0.1
2015-Aug-24 22:27N 22°19' E 114°07'0 0.1
2015-Aug-24 21:33N 22°19' E 114°07'0 0.0
2015-Aug-24 20:33N 22°19' E 114°07'0 0.0
2015-Aug-24 19:30N 22°19' E 114°07'0 0.1
2015-Aug-24 18:33N 22°19' E 114°07'0 0.3
2015-Aug-24 17:33N 22°19' E 114°07'8 7.4
2015-Aug-24 16:30N 22°12' E 114°11'8 8.3
2015-Aug-24 15:33N 22°09' E 114°18'1313.0
2015-Aug-24 14:32N 22°08' E 114°32'20216.8
2015-Aug-24 02:31N 23°36' E 117°50'1717.6
2015-Aug-24 01:32N 23°48' E 118°04'1917.5
2015-Aug-24 00:26N 24°03' E 118°17'1314.9
2015-Aug-23 23:33N 24°16' E 118°15'1414.3
2015-Aug-23 22:33N 24°26' E 118°03'3 1.8
2015-Aug-23 21:07N 24°27' E 118°01'0 0.0
2015-Aug-23 19:25N 24°27' E 118°01'0 0.0
2015-Aug-23 18:19N 24°27' E 118°01'0 0.0
2015-Aug-23 17:25N 24°27' E 118°01'0 0.0
2015-Aug-23 14:19N 24°27' E 118°01'0 0.0
2015-Aug-23 10:25N 24°27' E 118°01'0 0.0
2015-Aug-23 09:07N 24°27' E 118°01'0 0.0
2015-Aug-23 08:25N 24°27' E 118°01'0 0.0
2015-Aug-23 07:13N 24°27' E 118°01'0 0.0
2015-Aug-23 06:31N 24°27' E 118°01'9 9.0
2015-Aug-23 05:31N 24°22' E 118°09'1212.3
2015-Aug-23 04:33N 24°13' E 118°18'5 5.0
2015-Aug-23 03:32N 24°13' E 118°23'0 0.2
2015-Aug-23 02:09N 24°13' E 118°23'  
Track history (hours):
 
Tides and Currents Weather Stations Pressure Air Temp Water Temp Dewpoint Dewpoint Depression Visibility Wind Speed Wind Dir Waves Ship Positions

Brevik Bridge

Last reported at 2015-Sep-02 01:29 UTC. Time now 2015-Sep-02 02:27 UTC.
Position N 02°56' E 101°18'.

Length 268 m; draft 11.6 m.

Type: Cargo ship. MMSI: 477866200.

Date/timePositionNaut miles runAvg speedWind from/ knotsBaromVisibWave heightAir tempDewpointWater temp
2015-Sep-02 01:29N 02°56' E 101°18'0 0.0
2015-Sep-02 00:29N 02°56' E 101°18'0 0.0
2015-Sep-01 22:32N 02°56' E 101°18'0 0.0
2015-Sep-01 20:32N 02°56' E 101°18'0 0.0
2015-Sep-01 19:32N 02°56' E 101°18'0 0.0
2015-Sep-01 17:32N 02°56' E 101°18'0 0.0
2015-Sep-01 16:32N 02°56' E 101°18'0 0.0
2015-Sep-01 13:32N 02°56' E 101°18'0 0.0
2015-Sep-01 10:30N 02°56' E 101°18'1 0.8
2015-Sep-01 09:33N 02°55' E 101°17'9 8.7
2015-Sep-01 08:33N 02°48' E 101°13'1 1.2
2015-Sep-01 07:31N 02°48' E 101°11'0 0.0
2015-Sep-01 05:16N 02°48' E 101°11'0 0.1
2015-Sep-01 04:04N 02°48' E 101°11'0 0.1
2015-Sep-01 03:31N 02°48' E 101°11'0 0.1
2015-Sep-01 01:31N 02°48' E 101°12'0 0.0
2015-Sep-01 00:31N 02°48' E 101°12'0 0.1
2015-Aug-31 19:31N 02°48' E 101°11'0 0.1
2015-Aug-31 18:31N 02°48' E 101°11'0 0.1
2015-Aug-31 16:29N 02°48' E 101°11'7 8.0
2015-Aug-31 15:34N 02°42' E 101°16'2311.7
2015-Aug-31 13:33N 02°30' E 101°36'1110.7
2015-Aug-31 12:32N 02°23' E 101°45'13511.9
2015-Aug-31 01:13N 01°12' E 103°39'6 9.8
2015-Aug-31 00:33N 01°16' E 103°44'2 1.8
2015-Aug-30 23:26N 01°17' E 103°46'0 0.0
2015-Aug-30 22:29N 01°17' E 103°46'0 0.0
2015-Aug-30 21:32N 01°17' E 103°46'0 0.0
2015-Aug-30 20:32N 01°17' E 103°46'0 0.0
2015-Aug-30 19:26N 01°17' E 103°46'0 0.0
2015-Aug-30 18:29N 01°17' E 103°46'0 0.0
2015-Aug-30 17:23N 01°17' E 103°46'0 0.0
2015-Aug-30 16:29N 01°17' E 103°46'0 0.0
2015-Aug-30 15:29N 01°17' E 103°46'0 0.0
2015-Aug-30 14:29N 01°17' E 103°46'0 0.0
2015-Aug-30 13:29N 01°17' E 103°46'0 0.0
2015-Aug-30 12:29N 01°17' E 103°46'0 0.0
2015-Aug-30 11:05N 01°17' E 103°46'0 0.0
2015-Aug-30 10:32N 01°17' E 103°46'0 0.0
2015-Aug-30 09:29N 01°17' E 103°46'0 0.0
2015-Aug-30 08:11N 01°17' E 103°46'0 0.0
2015-Aug-30 07:29N 01°17' E 103°46'0 0.0
2015-Aug-30 06:33N 01°17' E 103°46'1 1.1
2015-Aug-30 05:33N 01°16' E 103°45'4 3.9
2015-Aug-30 04:33N 01°13' E 103°48'9 9.3
2015-Aug-30 03:33N 01°15' E 103°57'10 9.6
2015-Aug-30 02:33N 01°17' E 104°06'8 7.8
2015-Aug-30 01:33N 01°18' E 104°14'  
2015-Aug-26 13:33N 22°06' E 114°24'1914.1
2015-Aug-26 12:12N 22°16' E 114°07'1312.3
2015-Aug-26 11:08N 22°22' E 113°54'5 4.7
2015-Aug-26 10:07N 22°27' E 113°53'0 0.1
2015-Aug-26 09:25N 22°27' E 113°53'0 0.1
2015-Aug-26 08:19N 22°27' E 113°53'0 0.1
2015-Aug-26 07:31N 22°27' E 113°53'0 0.0
2015-Aug-26 06:25N 22°27' E 113°53'0 0.1
2015-Aug-26 05:31N 22°27' E 113°53'0 0.0
2015-Aug-26 04:25N 22°27' E 113°53'0 0.1
2015-Aug-26 03:31N 22°27' E 113°53'0 0.0
2015-Aug-26 01:13N 22°27' E 113°53'0 0.0
2015-Aug-25 20:12N 22°27' E 113°53'3 5.3
2015-Aug-25 19:33N 22°24' E 113°54'8 7.2
2015-Aug-25 18:30N 22°21' E 114°01'5 5.1
2015-Aug-25 17:32N 22°18' E 114°05'0 0.1
2015-Aug-25 16:32N 22°18' E 114°05'0 0.1
2015-Aug-25 15:27N 22°18' E 114°06'0 0.2
2015-Aug-25 14:32N 22°18' E 114°05'0 0.1
2015-Aug-25 13:29N 22°18' E 114°05'3 2.7
2015-Aug-25 12:33N 22°19' E 114°07'0 0.1
2015-Aug-25 11:27N 22°19' E 114°07'0 0.0
2015-Aug-25 10:27N 22°19' E 114°07'0 0.0
2015-Aug-25 09:30N 22°19' E 114°07'0 0.1
2015-Aug-25 08:33N 22°19' E 114°07'0 0.0
2015-Aug-25 07:15N 22°19' E 114°07'0 0.0
2015-Aug-25 06:30N 22°19' E 114°07'0 0.0
2015-Aug-25 05:27N 22°19' E 114°07'0 0.1
2015-Aug-25 04:33N 22°19' E 114°07'0 0.1
2015-Aug-25 03:33N 22°19' E 114°07'0 0.0
2015-Aug-25 02:24N 22°19' E 114°07'0 0.1
2015-Aug-25 01:30N 22°19' E 114°07'0 0.1
2015-Aug-25 00:33N 22°19' E 114°07'0 0.1
2015-Aug-24 23:33N 22°19' E 114°07'0 0.1
2015-Aug-24 22:27N 22°19' E 114°07'0 0.1
2015-Aug-24 21:33N 22°19' E 114°07'0 0.0
2015-Aug-24 20:33N 22°19' E 114°07'0 0.0
2015-Aug-24 19:30N 22°19' E 114°07'0 0.1
2015-Aug-24 18:33N 22°19' E 114°07'0 0.3
2015-Aug-24 17:33N 22°19' E 114°07'8 7.4
2015-Aug-24 16:30N 22°12' E 114°11'8 8.3
2015-Aug-24 15:33N 22°09' E 114°18'1313.0
2015-Aug-24 14:32N 22°08' E 114°32'20216.8
2015-Aug-24 02:31N 23°36' E 117°50'1717.6
2015-Aug-24 01:32N 23°48' E 118°04'1917.5
2015-Aug-24 00:26N 24°03' E 118°17'1314.9
2015-Aug-23 23:33N 24°16' E 118°15'1414.3
2015-Aug-23 22:33N 24°26' E 118°03'3 1.8
2015-Aug-23 21:07N 24°27' E 118°01'0 0.0
2015-Aug-23 19:25N 24°27' E 118°01'0 0.0
2015-Aug-23 18:19N 24°27' E 118°01'0 0.0
2015-Aug-23 17:25N 24°27' E 118°01'0 0.0
2015-Aug-23 14:19N 24°27' E 118°01'0 0.0
2015-Aug-23 10:25N 24°27' E 118°01'0 0.0
2015-Aug-23 09:07N 24°27' E 118°01'0 0.0
2015-Aug-23 08:25N 24°27' E 118°01'0 0.0
2015-Aug-23 07:13N 24°27' E 118°01'0 0.0
2015-Aug-23 06:31N 24°27' E 118°01'9 9.0
2015-Aug-23 05:31N 24°22' E 118°09'1212.3
2015-Aug-23 04:33N 24°13' E 118°18'5 5.0
2015-Aug-23 03:32N 24°13' E 118°23'0 0.2
2015-Aug-23 02:09N 24°13' E 118°23'  

Dump ship's entire track history